sensor_id;sensor_type;location;lat;lon;timestamp;P1;P2;P0
78063;PMS5003;67429;51.596;-3.264;2023-11-18T00:00:56;13;13;
78063;PMS5003;67429;51.596;-3.264;2023-11-18T00:03:21;12;12;
78063;PMS5003;67429;51.596;-3.264;2023-11-18T00:05:47;12;12;
78063;PMS5003;67429;51.596;-3.264;2023-11-18T00:08:13;7;6;
78063;PMS5003;67429;51.596;-3.264;2023-11-18T00:10:38;7;7;
78063;PMS5003;67429;51.596;-3.264;2023-11-18T00:13:04;6;6;
78063;PMS5003;67429;51.596;-3.264;2023-11-18T00:15:29;7;6;
78063;PMS5003;67429;51.596;-3.264;2023-11-18T00:17:55;5;5;
78063;PMS5003;67429;51.596;-3.264;2023-11-18T00:20:21;6;5;
78063;PMS5003;67429;51.596;-3.264;2023-11-18T00:22:46;5;5;
78063;PMS5003;67429;51.596;-3.264;2023-11-18T00:25:12;7;5;
78063;PMS5003;67429;51.596;-3.264;2023-11-18T00:27:38;4;4;
78063;PMS5003;67429;51.596;-3.264;2023-11-18T00:30:04;4;4;
78063;PMS5003;67429;51.596;-3.264;2023-11-18T00:32:29;5;5;
78063;PMS5003;67429;51.596;-3.264;2023-11-18T00:34:55;7;7;
78063;PMS5003;67429;51.596;-3.264;2023-11-18T00:37:20;7;7;
78063;PMS5003;67429;51.596;-3.264;2023-11-18T00:39:46;6;5;
78063;PMS5003;67429;51.596;-3.264;2023-11-18T00:42:12;7;5;
78063;PMS5003;67429;51.596;-3.264;2023-11-18T00:44:37;6;6;
78063;PMS5003;67429;51.596;-3.264;2023-11-18T00:47:03;8;8;
78063;PMS5003;67429;51.596;-3.264;2023-11-18T00:49:28;7;7;
78063;PMS5003;67429;51.596;-3.264;2023-11-18T00:51:54;7;6;
78063;PMS5003;67429;51.596;-3.264;2023-11-18T00:54:20;7;7;
78063;PMS5003;67429;51.596;-3.264;2023-11-18T00:56:45;7;7;
78063;PMS5003;67429;51.596;-3.264;2023-11-18T00:59:11;4;4;
78063;PMS5003;67429;51.596;-3.264;2023-11-18T01:01:37;8;7;
78063;PMS5003;67429;51.596;-3.264;2023-11-18T01:04:02;6;5;
78063;PMS5003;67429;51.596;-3.264;2023-11-18T01:06:28;5;5;
78063;PMS5003;67429;51.596;-3.264;2023-11-18T01:08:54;6;5;
78063;PMS5003;67429;51.596;-3.264;2023-11-18T01:11:19;5;5;
78063;PMS5003;67429;51.596;-3.264;2023-11-18T01:13:45;5;5;
78063;PMS5003;67429;51.596;-3.264;2023-11-18T01:16:10;3;3;
78063;PMS5003;67429;51.596;-3.264;2023-11-18T01:18:36;4;4;
78063;PMS5003;67429;51.596;-3.264;2023-11-18T01:21:02;2;1;
78063;PMS5003;67429;51.596;-3.264;2023-11-18T01:23:28;0;0;
78063;PMS5003;67429;51.596;-3.264;2023-11-18T01:25:53;1;1;
78063;PMS5003;67429;51.596;-3.264;2023-11-18T01:28:18;1;1;
78063;PMS5003;67429;51.596;-3.264;2023-11-18T01:30:44;0;0;
78063;PMS5003;67429;51.596;-3.264;2023-11-18T01:33:10;0;0;
78063;PMS5003;67429;51.596;-3.264;2023-11-18T01:35:35;0;0;
78063;PMS5003;67429;51.596;-3.264;2023-11-18T01:38:07;0;0;
78063;PMS5003;67429;51.596;-3.264;2023-11-18T01:40:27;0;0;
78063;PMS5003;67429;51.596;-3.264;2023-11-18T01:42:52;0;0;
78063;PMS5003;67429;51.596;-3.264;2023-11-18T01:45:18;0;0;
78063;PMS5003;67429;51.596;-3.264;2023-11-18T01:47:44;0;0;
78063;PMS5003;67429;51.596;-3.264;2023-11-18T01:50:09;0;0;
78063;PMS5003;67429;51.596;-3.264;2023-11-18T01:52:35;0;0;
78063;PMS5003;67429;51.596;-3.264;2023-11-18T01:55:00;0;0;
78063;PMS5003;67429;51.596;-3.264;2023-11-18T01:57:26;0;0;
78063;PMS5003;67429;51.596;-3.264;2023-11-18T01:59:52;0;0;
78063;PMS5003;67429;51.596;-3.264;2023-11-18T02:02:17;0;0;
78063;PMS5003;67429;51.596;-3.264;2023-11-18T02:04:43;1;1;
78063;PMS5003;67429;51.596;-3.264;2023-11-18T02:07:08;0;0;
78063;PMS5003;67429;51.596;-3.264;2023-11-18T02:09:34;0;0;
78063;PMS5003;67429;51.596;-3.264;2023-11-18T02:12:00;0;0;
78063;PMS5003;67429;51.596;-3.264;2023-11-18T02:14:26;0;0;
78063;PMS5003;67429;51.596;-3.264;2023-11-18T02:16:51;0;0;
78063;PMS5003;67429;51.596;-3.264;2023-11-18T02:19:19;0;0;
78063;PMS5003;67429;51.596;-3.264;2023-11-18T02:21:42;0;0;
78063;PMS5003;67429;51.596;-3.264;2023-11-18T02:24:08;0;0;
78063;PMS5003;67429;51.596;-3.264;2023-11-18T02:26:33;1;1;
78063;PMS5003;67429;51.596;-3.264;2023-11-18T02:28:59;0;0;
78063;PMS5003;67429;51.596;-3.264;2023-11-18T02:31:26;0;0;
78063;PMS5003;67429;51.596;-3.264;2023-11-18T02:33:52;0;0;
78063;PMS5003;67429;51.596;-3.264;2023-11-18T02:36:18;2;1;
78063;PMS5003;67429;51.596;-3.264;2023-11-18T02:38:43;1;1;
78063;PMS5003;67429;51.596;-3.264;2023-11-18T02:41:09;0;0;
78063;PMS5003;67429;51.596;-3.264;2023-11-18T02:43:33;0;0;
78063;PMS5003;67429;51.596;-3.264;2023-11-18T02:45:58;1;1;
78063;PMS5003;67429;51.596;-3.264;2023-11-18T02:48:26;1;1;
78063;PMS5003;67429;51.596;-3.264;2023-11-18T02:50:50;0;0;
78063;PMS5003;67429;51.596;-3.264;2023-11-18T02:53:15;1;1;
78063;PMS5003;67429;51.596;-3.264;2023-11-18T02:55:41;0;0;
78063;PMS5003;67429;51.596;-3.264;2023-11-18T02:58:07;0;0;
78063;PMS5003;67429;51.596;-3.264;2023-11-18T03:00:32;0;0;
78063;PMS5003;67429;51.596;-3.264;2023-11-18T03:02:58;0;0;
78063;PMS5003;67429;51.596;-3.264;2023-11-18T03:05:23;0;0;
78063;PMS5003;67429;51.596;-3.264;2023-11-18T03:07:49;0;0;
78063;PMS5003;67429;51.596;-3.264;2023-11-18T03:10:15;0;0;
78063;PMS5003;67429;51.596;-3.264;2023-11-18T03:12:40;0;0;
78063;PMS5003;67429;51.596;-3.264;2023-11-18T03:15:06;0;0;
78063;PMS5003;67429;51.596;-3.264;2023-11-18T03:17:31;0;0;
78063;PMS5003;67429;51.596;-3.264;2023-11-18T03:19:57;0;0;
78063;PMS5003;67429;51.596;-3.264;2023-11-18T03:22:23;0;0;
78063;PMS5003;67429;51.596;-3.264;2023-11-18T03:24:48;0;0;
78063;PMS5003;67429;51.596;-3.264;2023-11-18T03:27:14;1;1;
78063;PMS5003;67429;51.596;-3.264;2023-11-18T03:29:40;0;0;
78063;PMS5003;67429;51.596;-3.264;2023-11-18T03:32:05;0;0;
78063;PMS5003;67429;51.596;-3.264;2023-11-18T03:34:31;1;1;
78063;PMS5003;67429;51.596;-3.264;2023-11-18T03:36:56;0;0;
78063;PMS5003;67429;51.596;-3.264;2023-11-18T03:39:22;0;0;
78063;PMS5003;67429;51.596;-3.264;2023-11-18T03:41:48;0;0;
78063;PMS5003;67429;51.596;-3.264;2023-11-18T03:44:13;0;0;
78063;PMS5003;67429;51.596;-3.264;2023-11-18T03:46:39;0;0;
78063;PMS5003;67429;51.596;-3.264;2023-11-18T03:49:05;0;0;
78063;PMS5003;67429;51.596;-3.264;2023-11-18T03:51:30;1;0;
78063;PMS5003;67429;51.596;-3.264;2023-11-18T03:53:56;0;0;
78063;PMS5003;67429;51.596;-3.264;2023-11-18T03:56:21;0;0;
78063;PMS5003;67429;51.596;-3.264;2023-11-18T03:58:47;0;0;
78063;PMS5003;67429;51.596;-3.264;2023-11-18T04:03:38;0;0;
78063;PMS5003;67429;51.596;-3.264;2023-11-18T04:06:04;0;0;
78063;PMS5003;67429;51.596;-3.264;2023-11-18T04:08:29;0;0;
78063;PMS5003;67429;51.596;-3.264;2023-11-18T04:10:55;0;0;
78063;PMS5003;67429;51.596;-3.264;2023-11-18T04:13:20;0;0;
78063;PMS5003;67429;51.596;-3.264;2023-11-18T04:15:46;0;0;
78063;PMS5003;67429;51.596;-3.264;2023-11-18T04:18:12;0;0;
78063;PMS5003;67429;51.596;-3.264;2023-11-18T04:20:37;0;0;
78063;PMS5003;67429;51.596;-3.264;2023-11-18T04:23:03;0;0;
78063;PMS5003;67429;51.596;-3.264;2023-11-18T04:25:29;0;0;
78063;PMS5003;67429;51.596;-3.264;2023-11-18T04:27:54;0;0;
78063;PMS5003;67429;51.596;-3.264;2023-11-18T04:30:20;0;0;
78063;PMS5003;67429;51.596;-3.264;2023-11-18T04:32:45;0;0;
78063;PMS5003;67429;51.596;-3.264;2023-11-18T04:35:11;0;0;
78063;PMS5003;67429;51.596;-3.264;2023-11-18T04:37:37;0;0;
78063;PMS5003;67429;51.596;-3.264;2023-11-18T04:40:02;0;0;
78063;PMS5003;67429;51.596;-3.264;2023-11-18T04:42:28;0;0;
78063;PMS5003;67429;51.596;-3.264;2023-11-18T04:44:53;0;0;
78063;PMS5003;67429;51.596;-3.264;2023-11-18T04:47:19;0;0;
78063;PMS5003;67429;51.596;-3.264;2023-11-18T04:49:45;0;0;
78063;PMS5003;67429;51.596;-3.264;2023-11-18T04:52:10;0;0;
78063;PMS5003;67429;51.596;-3.264;2023-11-18T04:54:36;0;0;
78063;PMS5003;67429;51.596;-3.264;2023-11-18T04:57:01;0;0;
78063;PMS5003;67429;51.596;-3.264;2023-11-18T04:59:27;0;0;
78063;PMS5003;67429;51.596;-3.264;2023-11-18T05:01:52;0;0;
78063;PMS5003;67429;51.596;-3.264;2023-11-18T05:04:18;0;0;
78063;PMS5003;67429;51.596;-3.264;2023-11-18T05:06:44;0;0;
78063;PMS5003;67429;51.596;-3.264;2023-11-18T05:09:09;0;0;
78063;PMS5003;67429;51.596;-3.264;2023-11-18T05:11:35;0;0;
78063;PMS5003;67429;51.596;-3.264;2023-11-18T05:14:00;0;0;
78063;PMS5003;67429;51.596;-3.264;2023-11-18T05:16:26;0;0;
78063;PMS5003;67429;51.596;-3.264;2023-11-18T05:18:52;0;0;
78063;PMS5003;67429;51.596;-3.264;2023-11-18T05:21:17;0;0;
78063;PMS5003;67429;51.596;-3.264;2023-11-18T05:23:43;0;0;
78063;PMS5003;67429;51.596;-3.264;2023-11-18T05:26:08;0;0;
78063;PMS5003;67429;51.596;-3.264;2023-11-18T05:28:34;0;0;
78063;PMS5003;67429;51.596;-3.264;2023-11-18T05:30:59;0;0;
78063;PMS5003;67429;51.596;-3.264;2023-11-18T05:33:25;0;0;
78063;PMS5003;67429;51.596;-3.264;2023-11-18T05:35:51;0;0;
78063;PMS5003;67429;51.596;-3.264;2023-11-18T05:38:16;0;0;
78063;PMS5003;67429;51.596;-3.264;2023-11-18T05:40:42;0;0;
78063;PMS5003;67429;51.596;-3.264;2023-11-18T05:43:07;0;0;
78063;PMS5003;67429;51.596;-3.264;2023-11-18T05:45:34;0;0;
78063;PMS5003;67429;51.596;-3.264;2023-11-18T05:47:58;0;0;
78063;PMS5003;67429;51.596;-3.264;2023-11-18T05:50:24;0;0;
78063;PMS5003;67429;51.596;-3.264;2023-11-18T05:52:50;0;0;
78063;PMS5003;67429;51.596;-3.264;2023-11-18T05:55:15;0;0;
78063;PMS5003;67429;51.596;-3.264;2023-11-18T05:57:41;0;0;
78063;PMS5003;67429;51.596;-3.264;2023-11-18T06:00:07;0;0;
78063;PMS5003;67429;51.596;-3.264;2023-11-18T06:02:32;0;0;
78063;PMS5003;67429;51.596;-3.264;2023-11-18T06:04:57;0;0;
78063;PMS5003;67429;51.596;-3.264;2023-11-18T06:07:23;0;0;
78063;PMS5003;67429;51.596;-3.264;2023-11-18T06:09:49;0;0;
78063;PMS5003;67429;51.596;-3.264;2023-11-18T06:12:14;0;0;
78063;PMS5003;67429;51.596;-3.264;2023-11-18T06:14:40;0;0;
78063;PMS5003;67429;51.596;-3.264;2023-11-18T06:17:05;0;0;
78063;PMS5003;67429;51.596;-3.264;2023-11-18T06:19:31;0;0;
78063;PMS5003;67429;51.596;-3.264;2023-11-18T06:21:56;0;0;
78063;PMS5003;67429;51.596;-3.264;2023-11-18T06:24:22;0;0;
78063;PMS5003;67429;51.596;-3.264;2023-11-18T06:26:47;0;0;
78063;PMS5003;67429;51.596;-3.264;2023-11-18T06:29:13;0;0;
78063;PMS5003;67429;51.596;-3.264;2023-11-18T06:31:39;0;0;
78063;PMS5003;67429;51.596;-3.264;2023-11-18T06:34:04;0;0;
78063;PMS5003;67429;51.596;-3.264;2023-11-18T06:36:30;0;0;
78063;PMS5003;67429;51.596;-3.264;2023-11-18T06:38:55;0;0;
78063;PMS5003;67429;51.596;-3.264;2023-11-18T06:41:21;0;0;
78063;PMS5003;67429;51.596;-3.264;2023-11-18T06:43:46;0;0;
78063;PMS5003;67429;51.596;-3.264;2023-11-18T06:46:12;0;0;
78063;PMS5003;67429;51.596;-3.264;2023-11-18T06:48:38;0;0;
78063;PMS5003;67429;51.596;-3.264;2023-11-18T06:51:03;0;0;
78063;PMS5003;67429;51.596;-3.264;2023-11-18T06:53:28;0;0;
78063;PMS5003;67429;51.596;-3.264;2023-11-18T06:55:54;0;0;
78063;PMS5003;67429;51.596;-3.264;2023-11-18T06:58:19;0;0;
78063;PMS5003;67429;51.596;-3.264;2023-11-18T07:00:45;0;0;
78063;PMS5003;67429;51.596;-3.264;2023-11-18T07:03:10;0;0;
78063;PMS5003;67429;51.596;-3.264;2023-11-18T07:05:36;0;0;
78063;PMS5003;67429;51.596;-3.264;2023-11-18T07:08:01;0;0;
78063;PMS5003;67429;51.596;-3.264;2023-11-18T07:10:27;0;0;
78063;PMS5003;67429;51.596;-3.264;2023-11-18T07:12:53;0;0;
78063;PMS5003;67429;51.596;-3.264;2023-11-18T07:15:18;0;0;
78063;PMS5003;67429;51.596;-3.264;2023-11-18T07:17:44;0;0;
78063;PMS5003;67429;51.596;-3.264;2023-11-18T07:20:10;0;0;
78063;PMS5003;67429;51.596;-3.264;2023-11-18T07:22:35;0;0;
78063;PMS5003;67429;51.596;-3.264;2023-11-18T07:25:00;0;0;
78063;PMS5003;67429;51.596;-3.264;2023-11-18T07:27:26;0;0;
78063;PMS5003;67429;51.596;-3.264;2023-11-18T07:29:51;0;0;
78063;PMS5003;67429;51.596;-3.264;2023-11-18T07:32:17;0;0;
78063;PMS5003;67429;51.596;-3.264;2023-11-18T07:34:43;0;0;
78063;PMS5003;67429;51.596;-3.264;2023-11-18T07:37:08;0;0;
78063;PMS5003;67429;51.596;-3.264;2023-11-18T07:39:33;0;0;
78063;PMS5003;67429;51.596;-3.264;2023-11-18T07:41:59;0;0;
78063;PMS5003;67429;51.596;-3.264;2023-11-18T07:44:25;0;0;
78063;PMS5003;67429;51.596;-3.264;2023-11-18T07:46:50;0;0;
78063;PMS5003;67429;51.596;-3.264;2023-11-18T07:49:16;0;0;
78063;PMS5003;67429;51.596;-3.264;2023-11-18T07:51:41;0;0;
78063;PMS5003;67429;51.596;-3.264;2023-11-18T07:54:07;0;0;
78063;PMS5003;67429;51.596;-3.264;2023-11-18T07:56:32;0;0;
78063;PMS5003;67429;51.596;-3.264;2023-11-18T07:58:58;0;0;
78063;PMS5003;67429;51.596;-3.264;2023-11-18T08:01:23;0;0;
78063;PMS5003;67429;51.596;-3.264;2023-11-18T08:03:49;0;0;
78063;PMS5003;67429;51.596;-3.264;2023-11-18T08:06:14;0;0;
78063;PMS5003;67429;51.596;-3.264;2023-11-18T08:08:40;0;0;
78063;PMS5003;67429;51.596;-3.264;2023-11-18T08:11:05;0;0;
78063;PMS5003;67429;51.596;-3.264;2023-11-18T08:13:31;0;0;
78063;PMS5003;67429;51.596;-3.264;2023-11-18T08:15:56;0;0;
78063;PMS5003;67429;51.596;-3.264;2023-11-18T08:18:22;0;0;
78063;PMS5003;67429;51.596;-3.264;2023-11-18T08:20:47;0;0;
78063;PMS5003;67429;51.596;-3.264;2023-11-18T08:23:13;0;0;
78063;PMS5003;67429;51.596;-3.264;2023-11-18T08:25:38;0;0;
78063;PMS5003;67429;51.596;-3.264;2023-11-18T08:28:04;0;0;
78063;PMS5003;67429;51.596;-3.264;2023-11-18T08:30:30;1;1;
78063;PMS5003;67429;51.596;-3.264;2023-11-18T08:32:55;0;0;
78063;PMS5003;67429;51.596;-3.264;2023-11-18T08:35:21;0;0;
78063;PMS5003;67429;51.596;-3.264;2023-11-18T08:37:46;0;0;
78063;PMS5003;67429;51.596;-3.264;2023-11-18T08:40:12;0;0;
78063;PMS5003;67429;51.596;-3.264;2023-11-18T08:42:37;1;1;
78063;PMS5003;67429;51.596;-3.264;2023-11-18T08:45:03;1;1;
78063;PMS5003;67429;51.596;-3.264;2023-11-18T08:47:28;3;3;
78063;PMS5003;67429;51.596;-3.264;2023-11-18T08:49:53;4;4;
78063;PMS5003;67429;51.596;-3.264;2023-11-18T08:52:19;5;5;
78063;PMS5003;67429;51.596;-3.264;2023-11-18T08:54:45;7;6;
78063;PMS5003;67429;51.596;-3.264;2023-11-18T08:57:10;8;7;
78063;PMS5003;67429;51.596;-3.264;2023-11-18T08:59:36;5;5;
78063;PMS5003;67429;51.596;-3.264;2023-11-18T09:02:01;7;7;
78063;PMS5003;67429;51.596;-3.264;2023-11-18T09:04:27;14;14;
78063;PMS5003;67429;51.596;-3.264;2023-11-18T09:06:53;11;11;
78063;PMS5003;67429;51.596;-3.264;2023-11-18T09:09:18;14;14;
78063;PMS5003;67429;51.596;-3.264;2023-11-18T09:11:44;13;12;
78063;PMS5003;67429;51.596;-3.264;2023-11-18T09:14:10;12;11;
78063;PMS5003;67429;51.596;-3.264;2023-11-18T09:16:35;7;5;
78063;PMS5003;67429;51.596;-3.264;2023-11-18T09:19:00;4;4;
78063;PMS5003;67429;51.596;-3.264;2023-11-18T09:21:26;8;6;
78063;PMS5003;67429;51.596;-3.264;2023-11-18T09:23:51;7;6;
78063;PMS5003;67429;51.596;-3.264;2023-11-18T09:26:17;9;8;
78063;PMS5003;67429;51.596;-3.264;2023-11-18T09:28:42;6;5;
78063;PMS5003;67429;51.596;-3.264;2023-11-18T09:31:08;7;4;
78063;PMS5003;67429;51.596;-3.264;2023-11-18T09:33:33;1;1;
78063;PMS5003;67429;51.596;-3.264;2023-11-18T09:35:59;2;2;
78063;PMS5003;67429;51.596;-3.264;2023-11-18T09:38:25;4;4;
78063;PMS5003;67429;51.596;-3.264;2023-11-18T09:40:50;1;1;
78063;PMS5003;67429;51.596;-3.264;2023-11-18T09:43:15;2;2;
78063;PMS5003;67429;51.596;-3.264;2023-11-18T09:45:41;2;2;
78063;PMS5003;67429;51.596;-3.264;2023-11-18T09:48:06;2;1;
78063;PMS5003;67429;51.596;-3.264;2023-11-18T09:50:32;3;2;
78063;PMS5003;67429;51.596;-3.264;2023-11-18T09:52:58;2;1;
78063;PMS5003;67429;51.596;-3.264;2023-11-18T09:55:25;3;2;
78063;PMS5003;67429;51.596;-3.264;2023-11-18T09:57:50;5;3;
78063;PMS5003;67429;51.596;-3.264;2023-11-18T10:00:15;4;4;
78063;PMS5003;67429;51.596;-3.264;2023-11-18T10:02:40;4;3;
78063;PMS5003;67429;51.596;-3.264;2023-11-18T10:05:06;4;4;
78063;PMS5003;67429;51.596;-3.264;2023-11-18T10:07:30;6;5;
78063;PMS5003;67429;51.596;-3.264;2023-11-18T10:09:56;6;6;
78063;PMS5003;67429;51.596;-3.264;2023-11-18T10:12:22;6;5;
78063;PMS5003;67429;51.596;-3.264;2023-11-18T10:14:47;4;4;
78063;PMS5003;67429;51.596;-3.264;2023-11-18T10:17:13;7;6;
78063;PMS5003;67429;51.596;-3.264;2023-11-18T10:22:04;7;7;
78063;PMS5003;67429;51.596;-3.264;2023-11-18T10:24:33;10;9;
78063;PMS5003;67429;51.596;-3.264;2023-11-18T10:26:55;6;6;
78063;PMS5003;67429;51.596;-3.264;2023-11-18T10:29:20;7;5;
78063;PMS5003;67429;51.596;-3.264;2023-11-18T10:31:46;6;5;
78063;PMS5003;67429;51.596;-3.264;2023-11-18T10:34:12;7;6;
78063;PMS5003;67429;51.596;-3.264;2023-11-18T10:36:37;8;7;
78063;PMS5003;67429;51.596;-3.264;2023-11-18T10:39:02;11;11;
78063;PMS5003;67429;51.596;-3.264;2023-11-18T10:41:28;7;6;
78063;PMS5003;67429;51.596;-3.264;2023-11-18T10:46:19;6;6;
78063;PMS5003;67429;51.596;-3.264;2023-11-18T10:48:45;13;11;
78063;PMS5003;67429;51.596;-3.264;2023-11-18T10:51:11;10;9;
78063;PMS5003;67429;51.596;-3.264;2023-11-18T10:53:36;8;6;
78063;PMS5003;67429;51.596;-3.264;2023-11-18T10:56:02;11;10;
78063;PMS5003;67429;51.596;-3.264;2023-11-18T10:58:28;9;9;
78063;PMS5003;67429;51.596;-3.264;2023-11-18T11:00:52;8;7;
78063;PMS5003;67429;51.596;-3.264;2023-11-18T11:03:18;7;7;
78063;PMS5003;67429;51.596;-3.264;2023-11-18T11:05:44;15;12;
78063;PMS5003;67429;51.596;-3.264;2023-11-18T11:08:09;8;7;
78063;PMS5003;67429;51.596;-3.264;2023-11-18T11:10:34;11;9;
78063;PMS5003;67429;51.596;-3.264;2023-11-18T11:13:00;10;9;
78063;PMS5003;67429;51.596;-3.264;2023-11-18T11:15:26;12;10;
78063;PMS5003;67429;51.596;-3.264;2023-11-18T11:17:52;10;9;
78063;PMS5003;67429;51.596;-3.264;2023-11-18T11:20:16;11;10;
78063;PMS5003;67429;51.596;-3.264;2023-11-18T11:22:42;8;8;
78063;PMS5003;67429;51.596;-3.264;2023-11-18T11:25:09;14;14;
78063;PMS5003;67429;51.596;-3.264;2023-11-18T11:27:32;10;9;
78063;PMS5003;67429;51.596;-3.264;2023-11-18T11:29:59;8;7;
78063;PMS5003;67429;51.596;-3.264;2023-11-18T11:32:25;13;10;
78063;PMS5003;67429;51.596;-3.264;2023-11-18T11:34:50;11;9;
78063;PMS5003;67429;51.596;-3.264;2023-11-18T11:37:14;13;13;
78063;PMS5003;67429;51.596;-3.264;2023-11-18T11:39:39;9;7;
78063;PMS5003;67429;51.596;-3.264;2023-11-18T11:42:04;13;11;
78063;PMS5003;67429;51.596;-3.264;2023-11-18T11:44:30;9;8;
78063;PMS5003;67429;51.596;-3.264;2023-11-18T11:46:56;15;11;
78063;PMS5003;67429;51.596;-3.264;2023-11-18T11:49:22;13;12;
78063;PMS5003;67429;51.596;-3.264;2023-11-18T11:51:47;13;11;
78063;PMS5003;67429;51.596;-3.264;2023-11-18T11:54:13;11;8;
78063;PMS5003;67429;51.596;-3.264;2023-11-18T11:56:38;10;10;
78063;PMS5003;67429;51.596;-3.264;2023-11-18T11:59:03;9;8;
78063;PMS5003;67429;51.596;-3.264;2023-11-18T12:01:32;8;7;
78063;PMS5003;67429;51.596;-3.264;2023-11-18T12:03:54;12;11;
78063;PMS5003;67429;51.596;-3.264;2023-11-18T12:06:19;13;11;
78063;PMS5003;67429;51.596;-3.264;2023-11-18T12:08:45;11;10;
78063;PMS5003;67429;51.596;-3.264;2023-11-18T12:11:11;11;8;
78063;PMS5003;67429;51.596;-3.264;2023-11-18T12:13:37;10;9;
78063;PMS5003;67429;51.596;-3.264;2023-11-18T12:16:01;9;8;
78063;PMS5003;67429;51.596;-3.264;2023-11-18T12:18:26;10;9;
78063;PMS5003;67429;51.596;-3.264;2023-11-18T12:20:52;14;10;
78063;PMS5003;67429;51.596;-3.264;2023-11-18T12:23:19;12;10;
78063;PMS5003;67429;51.596;-3.264;2023-11-18T12:25:43;13;11;
78063;PMS5003;67429;51.596;-3.264;2023-11-18T12:28:09;13;11;
78063;PMS5003;67429;51.596;-3.264;2023-11-18T12:30:38;7;7;
78063;PMS5003;67429;51.596;-3.264;2023-11-18T12:33:00;10;9;
78063;PMS5003;67429;51.596;-3.264;2023-11-18T12:35:25;13;9;
78063;PMS5003;67429;51.596;-3.264;2023-11-18T12:47:32;7;7;
78063;PMS5003;67429;51.596;-3.264;2023-11-18T12:49:58;6;6;
78063;PMS5003;67429;51.596;-3.264;2023-11-18T12:52:23;10;9;
78063;PMS5003;67429;51.596;-3.264;2023-11-18T12:54:49;8;8;
78063;PMS5003;67429;51.596;-3.264;2023-11-18T12:57:14;12;9;
78063;PMS5003;67429;51.596;-3.264;2023-11-18T12:59:39;13;12;
78063;PMS5003;67429;51.596;-3.264;2023-11-18T13:02:06;12;10;
78063;PMS5003;67429;51.596;-3.264;2023-11-18T13:04:30;9;9;
78063;PMS5003;67429;51.596;-3.264;2023-11-18T13:06:55;12;12;
78063;PMS5003;67429;51.596;-3.264;2023-11-18T13:09:21;8;7;
78063;PMS5003;67429;51.596;-3.264;2023-11-18T13:11:47;9;9;
78063;PMS5003;67429;51.596;-3.264;2023-11-18T13:14:12;7;7;
78063;PMS5003;67429;51.596;-3.264;2023-11-18T13:16:37;10;8;
78063;PMS5003;67429;51.596;-3.264;2023-11-18T13:19:03;6;6;
78063;PMS5003;67429;51.596;-3.264;2023-11-18T13:21:28;7;7;
78063;PMS5003;67429;51.596;-3.264;2023-11-18T13:23:54;10;8;
78063;PMS5003;67429;51.596;-3.264;2023-11-18T13:26:20;8;8;
78063;PMS5003;67429;51.596;-3.264;2023-11-18T13:28:46;13;11;
78063;PMS5003;67429;51.596;-3.264;2023-11-18T13:31:11;13;12;
78063;PMS5003;67429;51.596;-3.264;2023-11-18T13:33:37;13;12;
78063;PMS5003;67429;51.596;-3.264;2023-11-18T13:36:02;13;11;
78063;PMS5003;67429;51.596;-3.264;2023-11-18T13:38:27;11;11;
78063;PMS5003;67429;51.596;-3.264;2023-11-18T13:40:53;14;13;
78063;PMS5003;67429;51.596;-3.264;2023-11-18T13:43:18;14;11;
78063;PMS5003;67429;51.596;-3.264;2023-11-18T13:45:43;12;10;
78063;PMS5003;67429;51.596;-3.264;2023-11-18T13:48:09;13;9;
78063;PMS5003;67429;51.596;-3.264;2023-11-18T13:50:34;13;12;
78063;PMS5003;67429;51.596;-3.264;2023-11-18T13:53:00;14;12;
78063;PMS5003;67429;51.596;-3.264;2023-11-18T13:55:25;13;12;
78063;PMS5003;67429;51.596;-3.264;2023-11-18T13:57:51;10;8;
78063;PMS5003;67429;51.596;-3.264;2023-11-18T14:00:16;16;13;
78063;PMS5003;67429;51.596;-3.264;2023-11-18T14:02:42;17;14;
78063;PMS5003;67429;51.596;-3.264;2023-11-18T14:07:36;11;9;
78063;PMS5003;67429;51.596;-3.264;2023-11-18T14:09:58;13;13;
78063;PMS5003;67429;51.596;-3.264;2023-11-18T14:12:23;13;12;
78063;PMS5003;67429;51.596;-3.264;2023-11-18T14:14:48;12;10;
78063;PMS5003;67429;51.596;-3.264;2023-11-18T14:17:13;14;11;
78063;PMS5003;67429;51.596;-3.264;2023-11-18T14:19:39;14;10;
78063;PMS5003;67429;51.596;-3.264;2023-11-18T14:22:04;18;13;
78063;PMS5003;67429;51.596;-3.264;2023-11-18T14:24:29;13;11;
78063;PMS5003;67429;51.596;-3.264;2023-11-18T14:26:54;18;13;
78063;PMS5003;67429;51.596;-3.264;2023-11-18T14:29:20;11;10;
78063;PMS5003;67429;51.596;-3.264;2023-11-18T14:31:46;15;12;
78063;PMS5003;67429;51.596;-3.264;2023-11-18T14:34:11;19;15;
78063;PMS5003;67429;51.596;-3.264;2023-11-18T14:36:36;14;14;
78063;PMS5003;67429;51.596;-3.264;2023-11-18T14:39:02;18;15;
78063;PMS5003;67429;51.596;-3.264;2023-11-18T14:41:27;18;14;
78063;PMS5003;67429;51.596;-3.264;2023-11-18T14:43:53;13;13;
78063;PMS5003;67429;51.596;-3.264;2023-11-18T14:46:19;17;16;
78063;PMS5003;67429;51.596;-3.264;2023-11-18T14:48:44;15;13;
78063;PMS5003;67429;51.596;-3.264;2023-11-18T14:51:10;15;15;
78063;PMS5003;67429;51.596;-3.264;2023-11-18T14:53:35;14;13;
78063;PMS5003;67429;51.596;-3.264;2023-11-18T14:56:00;13;10;
78063;PMS5003;67429;51.596;-3.264;2023-11-18T14:58:26;15;11;
78063;PMS5003;67429;51.596;-3.264;2023-11-18T15:00:52;18;15;
78063;PMS5003;67429;51.596;-3.264;2023-11-18T15:03:17;14;12;
78063;PMS5003;67429;51.596;-3.264;2023-11-18T15:05:42;15;12;
78063;PMS5003;67429;51.596;-3.264;2023-11-18T15:08:08;8;7;
78063;PMS5003;67429;51.596;-3.264;2023-11-18T15:10:33;11;10;
78063;PMS5003;67429;51.596;-3.264;2023-11-18T15:12:59;13;13;
78063;PMS5003;67429;51.596;-3.264;2023-11-18T15:15:25;15;12;
78063;PMS5003;67429;51.596;-3.264;2023-11-18T15:17:50;16;15;
78063;PMS5003;67429;51.596;-3.264;2023-11-18T15:20:16;18;17;
78063;PMS5003;67429;51.596;-3.264;2023-11-18T15:22:42;13;11;
78063;PMS5003;67429;51.596;-3.264;2023-11-18T15:25:08;11;11;
78063;PMS5003;67429;51.596;-3.264;2023-11-18T15:27:33;12;11;
78063;PMS5003;67429;51.596;-3.264;2023-11-18T15:29:59;14;12;
78063;PMS5003;67429;51.596;-3.264;2023-11-18T15:32:25;17;16;
78063;PMS5003;67429;51.596;-3.264;2023-11-18T15:34:50;23;18;
78063;PMS5003;67429;51.596;-3.264;2023-11-18T15:37:15;22;17;
78063;PMS5003;67429;51.596;-3.264;2023-11-18T15:39:40;15;13;
78063;PMS5003;67429;51.596;-3.264;2023-11-18T15:42:06;23;17;
78063;PMS5003;67429;51.596;-3.264;2023-11-18T15:44:32;18;16;
78063;PMS5003;67429;51.596;-3.264;2023-11-18T15:46:57;19;14;
78063;PMS5003;67429;51.596;-3.264;2023-11-18T15:49:23;20;17;
78063;PMS5003;67429;51.596;-3.264;2023-11-18T15:51:49;19;15;
78063;PMS5003;67429;51.596;-3.264;2023-11-18T15:54:14;19;16;
78063;PMS5003;67429;51.596;-3.264;2023-11-18T15:56:40;16;12;
78063;PMS5003;67429;51.596;-3.264;2023-11-18T15:59:05;17;15;
78063;PMS5003;67429;51.596;-3.264;2023-11-18T16:01:31;16;14;
78063;PMS5003;67429;51.596;-3.264;2023-11-18T16:03:56;15;13;
78063;PMS5003;67429;51.596;-3.264;2023-11-18T16:06:22;18;15;
78063;PMS5003;67429;51.596;-3.264;2023-11-18T16:08:48;12;12;
78063;PMS5003;67429;51.596;-3.264;2023-11-18T16:11:13;17;16;
78063;PMS5003;67429;51.596;-3.264;2023-11-18T16:13:39;19;12;
78063;PMS5003;67429;51.596;-3.264;2023-11-18T16:16:04;16;11;
78063;PMS5003;67429;51.596;-3.264;2023-11-18T16:18:30;21;20;
78063;PMS5003;67429;51.596;-3.264;2023-11-18T16:20:56;20;14;
78063;PMS5003;67429;51.596;-3.264;2023-11-18T16:23:21;15;11;
78063;PMS5003;67429;51.596;-3.264;2023-11-18T16:25:47;11;11;
78063;PMS5003;67429;51.596;-3.264;2023-11-18T16:28:12;24;20;
78063;PMS5003;67429;51.596;-3.264;2023-11-18T16:30:38;13;12;